Time;durP1;ratioP1;P1;durP2;ratioP2;P2;SDS_P1;SDS_P2;PMS_P1;PMS_P2;Temp;Humidity;BMP_temperature;BMP_pressure;BME280_temperature;BME280_humidity;BME280_pressure;Samples;Min_cycle;Max_cycle;Signal;HPM_P1;HPM_P2
2022/06/26 00:00:14;;;;;;;19.02;12.63;;;;;;;21.14;71.39;100023.75;5003386;28;20046;-65
2022/06/26 00:02:40;;;;;;;18.05;12.52;;;;;;;21.05;71.44;100016.41;4993077;28;20030;-64
2022/06/26 00:05:07;;;;;;;14.07;11.25;;;;;;;21.02;71.94;100025.34;4999783;28;20115;-65
2022/06/26 00:07:33;;;;;;;17.95;12.98;;;;;;;21.02;71.37;100032.38;5011821;28;20496;-65
2022/06/26 00:09:59;;;;;;;17.92;11.90;;;;;;;21.02;71.30;100032.38;5011799;28;20053;-66
2022/06/26 00:12:25;;;;;;;16.02;11.20;;;;;;;21.01;71.29;100033.34;5011374;28;20468;-66
2022/06/26 00:14:50;;;;;;;18.77;11.95;;;;;;;20.95;71.79;100039.81;5011654;28;20026;-66
2022/06/26 00:17:16;;;;;;;13.80;11.88;;;;;;;20.93;71.73;100033.78;5011840;28;20135;-65
2022/06/26 00:19:42;;;;;;;15.77;12.10;;;;;;;20.88;72.06;100038.47;5011598;28;20030;-65
2022/06/26 00:22:08;;;;;;;18.42;11.55;;;;;;;20.78;72.88;100040.78;5011641;28;20049;-65
2022/06/26 00:24:35;;;;;;;16.38;12.02;;;;;;;20.71;72.81;100039.47;5002180;28;20510;-65
2022/06/26 00:27:02;;;;;;;16.23;12.45;;;;;;;20.69;73.10;100046.56;5011595;28;20033;-65
2022/06/26 00:29:31;;;;;;;19.02;12.23;;;;;;;20.69;72.91;100038.69;5014497;28;20026;-65
2022/06/26 00:31:57;;;;;;;20.05;11.90;;;;;;;20.67;73.24;100043.19;5011005;28;20483;-65
2022/06/26 00:34:23;;;;;;;20.48;12.23;;;;;;;20.64;73.29;100036.28;4997115;28;20027;-65
2022/06/26 00:36:48;;;;;;;19.92;11.73;;;;;;;20.51;72.75;100017.72;5014939;28;20448;-65
2022/06/26 00:39:14;;;;;;;15.52;12.05;;;;;;;20.61;73.72;100041.75;5011102;28;20057;-65
2022/06/26 00:41:39;;;;;;;18.55;12.05;;;;;;;20.64;73.18;100038.94;5013197;28;20088;-65
2022/06/26 00:44:17;;;;;;;15.40;11.07;;;;;;;20.50;73.62;100029.19;5014904;28;20026;-65
2022/06/26 00:46:43;;;;;;;16.55;12.00;;;;;;;20.66;72.89;100054.63;5013542;28;20030;-65
2022/06/26 00:49:09;;;;;;;16.15;12.07;;;;;;;20.65;73.16;100053.78;5014909;28;20029;-64
2022/06/26 00:51:44;;;;;;;18.52;12.23;;;;;;;20.36;73.40;100005.44;5014608;28;20038;-65
2022/06/26 00:54:10;;;;;;;18.08;11.75;;;;;;;20.64;73.47;100059.16;5011440;28;20030;-65
2022/06/26 00:56:37;;;;;;;20.33;11.63;;;;;;;20.62;73.75;100061.88;5012684;28;20025;-65
2022/06/26 00:59:03;;;;;;;17.15;11.63;;;;;;;20.56;74.06;100058.72;5014710;28;20053;-65
2022/06/26 01:01:29;;;;;;;17.63;12.00;;;;;;;20.57;74.08;100063.06;5013019;28;20068;-65
2022/06/26 01:03:55;;;;;;;14.35;11.32;;;;;;;20.55;74.24;100068.41;5008856;28;20038;-64
2022/06/26 01:06:21;;;;;;;17.85;12.98;;;;;;;20.56;73.77;100071.88;5011257;28;20124;-65
2022/06/26 01:08:46;;;;;;;16.60;11.90;;;;;;;20.56;73.92;100067.47;5014341;28;20037;-64
2022/06/26 01:11:18;;;;;;;17.38;12.15;;;;;;;20.58;74.21;100065.59;5014285;28;20361;-65
2022/06/26 01:13:47;;;;;;;;;;;;;;;20.56;74.56;100061.34;5014802;28;20117;-65
2022/06/26 01:16:14;;;;;;;15.48;12.00;;;;;;;20.51;73.82;100045.84;5014235;28;19992;-66
2022/06/26 01:18:41;;;;;;;17.13;12.30;;;;;;;20.58;73.87;100062.09;5014362;28;20037;-66
2022/06/26 01:21:06;;;;;;;20.20;12.18;;;;;;;20.54;74.27;100066.72;5014135;28;20026;-66
2022/06/26 01:23:32;;;;;;;18.90;12.27;;;;;;;20.55;74.44;100067.53;5013801;28;20387;-66
2022/06/26 01:25:58;;;;;;;16.20;12.43;;;;;;;20.49;74.62;100068.75;5013916;28;20063;-66
2022/06/26 01:28:23;;;;;;;16.27;10.95;;;;;;;20.51;74.54;100070.38;5013861;28;20487;-66
2022/06/26 01:30:49;;;;;;;17.80;11.98;;;;;;;20.34;75.01;100063.41;5013955;28;20081;-66
2022/06/26 01:33:15;;;;;;;14.35;11.63;;;;;;;20.41;75.12;100084.09;5013925;28;20038;-66
2022/06/26 01:35:40;;;;;;;18.00;12.27;;;;;;;20.35;75.38;100083.53;5013773;28;20045;-66
2022/06/26 01:38:13;;;;;;;14.75;11.25;;;;;;;20.33;75.10;100077.50;5012585;28;20101;-66
2022/06/26 01:40:40;;;;;;;19.00;11.85;;;;;;;20.40;75.30;100083.28;5013297;28;20487;-66
2022/06/26 01:43:07;;;;;;;20.73;12.90;;;;;;;20.42;75.18;100080.56;5012307;28;20377;-66
2022/06/26 01:45:33;;;;;;;18.50;12.38;;;;;;;20.37;75.33;100069.47;5013751;28;20063;-66
2022/06/26 01:47:58;;;;;;;20.13;12.25;;;;;;;20.43;75.04;100077.00;5013638;28;20113;-65
2022/06/26 01:50:24;;;;;;;20.05;12.73;;;;;;;20.45;75.33;100075.13;5013558;28;20607;-65
2022/06/26 01:52:50;;;;;;;17.40;11.20;;;;;;;20.35;75.81;100080.03;5013378;28;20072;-65
2022/06/26 01:55:15;;;;;;;18.33;11.80;;;;;;;20.29;76.00;100075.97;5013320;28;20480;-65
2022/06/26 01:57:41;;;;;;;20.05;12.43;;;;;;;20.33;75.98;100081.91;5013911;28;20025;-65
2022/06/26 02:00:07;;;;;;;17.23;12.00;;;;;;;20.35;75.46;100074.78;5013427;28;20030;-65
2022/06/26 02:02:33;;;;;;;15.30;12.35;;;;;;;20.42;75.81;100080.56;5013481;28;20037;-65
2022/06/26 02:04:59;;;;;;;22.20;13.27;;;;;;;20.40;75.51;100078.00;5012965;28;20124;-65
2022/06/26 02:07:25;;;;;;;18.08;11.98;;;;;;;20.45;75.79;100075.13;5013202;28;20454;-65
2022/06/26 02:15:20;;;;;;;16.08;12.23;;;;;;;20.60;75.78;100086.56;5012802;28;20463;-65
2022/06/26 02:17:46;;;;;;;16.48;12.27;;;;;;;20.56;75.79;100074.53;5013183;28;20030;-65
2022/06/26 02:20:12;;;;;;;20.20;12.93;;;;;;;20.66;75.68;100087.09;5012911;28;20368;-65
2022/06/26 02:22:38;;;;;;;16.73;12.38;;;;;;;20.70;75.66;100106.19;5013099;28;20036;-65
2022/06/26 02:25:04;;;;;;;16.10;12.27;;;;;;;20.73;75.90;100098.13;5011638;28;20033;-65
2022/06/26 02:27:30;;;;;;;21.80;13.73;;;;;;;20.75;75.78;100101.53;5012967;28;20034;-65
2022/06/26 02:29:55;;;;;;;15.02;12.13;;;;;;;20.77;75.56;100102.28;5013049;28;20071;-65
2022/06/26 02:32:21;;;;;;;15.88;11.93;;;;;;;20.91;75.54;100098.84;5012824;28;20460;-65
2022/06/26 02:34:46;;;;;;;20.23;12.10;;;;;;;20.92;75.16;100104.97;5012865;28;20021;-65
2022/06/26 02:37:12;;;;;;;15.00;11.77;;;;;;;20.97;75.28;100108.19;5012727;28;20034;-65
2022/06/26 02:39:37;;;;;;;15.95;12.38;;;;;;;20.99;75.26;100101.91;5012639;28;20026;-65
2022/06/26 02:42:03;;;;;;;18.05;12.60;;;;;;;21.01;75.44;100113.19;5012918;28;20840;-65
2022/06/26 02:44:30;;;;;;;17.13;11.65;;;;;;;21.05;75.76;100116.50;5012651;28;20029;-65
2022/06/26 02:46:55;;;;;;;18.92;11.40;;;;;;;21.12;75.22;100117.81;5012411;28;20022;-65
2022/06/26 02:49:21;;;;;;;17.02;12.25;;;;;;;21.19;75.35;100119.16;5012523;28;20079;-65
2022/06/26 02:51:46;;;;;;;14.77;11.35;;;;;;;21.26;75.15;100110.88;5012391;28;20463;-65
2022/06/26 02:54:13;;;;;;;15.38;11.77;;;;;;;21.31;74.98;100114.13;5012408;28;20022;-65
2022/06/26 02:56:38;;;;;;;19.45;11.27;;;;;;;21.32;74.68;100114.03;5012574;28;20534;-65
2022/06/26 02:59:04;;;;;;;17.60;11.55;;;;;;;21.43;74.55;100118.63;5006238;28;20062;-65
2022/06/26 03:01:30;;;;;;;16.50;12.07;;;;;;;21.51;74.65;100126.97;4994319;28;20045;-65
2022/06/26 03:03:55;;;;;;;15.43;10.60;;;;;;;21.58;74.31;100116.91;5012343;28;20091;-65
2022/06/26 03:06:21;;;;;;;17.05;10.98;;;;;;;21.63;74.19;100114.81;5012679;28;20046;-65
2022/06/26 03:08:46;;;;;;;17.77;11.85;;;;;;;21.70;74.10;100121.41;5012279;28;20479;-65
2022/06/26 03:11:12;;;;;;;17.17;10.90;;;;;;;21.78;73.96;100123.59;5012213;28;20033;-65
2022/06/26 03:13:37;;;;;;;15.13;11.25;;;;;;;21.88;73.60;100119.44;5011986;28;20069;-65
2022/06/26 03:16:03;;;;;;;13.45;11.05;;;;;;;21.94;73.52;100122.66;5012376;28;20535;-65
2022/06/26 03:18:29;;;;;;;13.52;10.30;;;;;;;22.04;73.46;100131.69;5011102;28;20032;-65
2022/06/26 03:20:55;;;;;;;15.18;10.57;;;;;;;22.07;72.64;100115.66;5011462;28;20107;-65
2022/06/26 03:24:00;;;;;;;13.00;10.10;;;;;;;22.37;72.22;100133.19;5012134;28;20364;-65
2022/06/26 03:26:06;;;;;;;14.20;9.90;;;;;;;22.50;71.11;100138.53;5011605;28;20026;-65
2022/06/26 03:28:32;;;;;;;13.63;9.65;;;;;;;22.56;70.83;100139.00;5012134;28;20037;-65
2022/06/26 03:30:57;;;;;;;14.70;10.35;;;;;;;22.62;70.87;100145.66;5012110;28;20080;-65
2022/06/26 03:33:23;;;;;;;11.85;9.80;;;;;;;22.68;69.85;100141.78;5011908;28;20029;-65
2022/06/26 03:35:48;;;;;;;14.13;10.70;;;;;;;22.77;69.73;100146.44;5012042;28;20029;-65
2022/06/26 03:38:15;;;;;;;14.65;9.60;;;;;;;22.82;70.00;100141.72;5011848;28;20041;-65
2022/06/26 03:40:41;;;;;;;11.70;10.02;;;;;;;22.87;69.64;100142.28;5011994;28;20029;-65
2022/06/26 03:43:11;;;;;;;11.45;8.70;;;;;;;22.95;69.18;100140.94;5012234;28;20052;-65
2022/06/26 03:45:38;;;;;;;14.75;10.25;;;;;;;22.79;69.12;100098.81;5011922;28;20058;-65
2022/06/26 03:48:03;;;;;;;15.30;10.85;;;;;;;23.08;68.95;100134.72;5012082;28;20026;-65
2022/06/26 03:50:29;;;;;;;13.73;10.68;;;;;;;23.18;68.98;100134.97;5011891;28;20546;-65
2022/06/26 03:52:55;;;;;;;16.10;11.45;;;;;;;23.27;68.25;100133.50;5011793;28;20049;-66
2022/06/26 03:55:20;;;;;;;16.88;10.80;;;;;;;23.35;68.36;100136.50;5011916;28;20084;-66
2022/06/26 03:57:46;;;;;;;14.98;10.93;;;;;;;23.45;67.82;100139.38;5011855;28;20054;-65
2022/06/26 04:00:12;;;;;;;18.75;10.93;;;;;;;23.49;67.82;100127.63;5011834;28;20030;-66
2022/06/26 04:02:39;;;;;;;14.85;9.98;;;;;;;23.61;67.36;100141.78;5013068;28;20123;-67
2022/06/26 04:05:05;;;;;;;13.70;10.18;;;;;;;23.64;66.47;100135.47;5015226;28;20054;-67
2022/06/26 04:07:31;;;;;;;13.05;9.32;;;;;;;23.75;66.58;100144.34;5015446;28;20429;-66
2022/06/26 04:09:56;;;;;;;14.27;9.68;;;;;;;23.84;66.07;100147.31;5015499;28;20037;-66
2022/06/26 04:12:22;;;;;;;15.40;10.77;;;;;;;23.87;65.33;100147.09;5015495;28;20036;-65
2022/06/26 04:14:47;;;;;;;15.32;9.18;;;;;;;23.93;65.29;100136.97;5015199;28;20038;-65
2022/06/26 04:17:14;;;;;;;15.60;10.15;;;;;;;24.06;65.65;100141.41;5015000;28;20109;-65
2022/06/26 04:19:39;;;;;;;16.45;9.98;;;;;;;24.08;64.93;100148.25;5015264;28;20033;-65
2022/06/26 04:22:05;;;;;;;16.02;9.73;;;;;;;24.14;65.17;100154.91;5014506;28;20033;-65
2022/06/26 04:24:31;;;;;;;14.80;9.77;;;;;;;24.23;64.49;100148.97;5015166;28;20109;-65
2022/06/26 04:26:56;;;;;;;15.25;8.98;;;;;;;24.34;64.64;100157.94;5014186;28;20026;-66
2022/06/26 04:29:22;;;;;;;16.90;9.05;;;;;;;24.42;64.63;100155.59;5015040;28;20026;-66
2022/06/26 04:31:48;;;;;;;15.15;9.45;;;;;;;24.50;64.82;100160.34;5015110;28;20033;-66
2022/06/26 04:34:13;;;;;;;18.20;8.98;;;;;;;24.49;64.80;100151.56;5015007;28;20026;-66
2022/06/26 04:36:39;;;;;;;13.55;8.40;;;;;;;24.54;64.92;100156.50;5015041;28;20513;-67
2022/06/26 04:39:05;;;;;;;14.13;8.15;;;;;;;24.64;63.83;100158.41;5014781;28;20133;-67
2022/06/26 04:41:36;;;;;;;11.27;7.32;;;;;;;24.66;62.72;100149.53;5014838;28;20061;-66
2022/06/26 04:44:08;;;;;;;11.27;6.65;;;;;;;24.56;62.08;100113.06;5014808;28;20029;-66
2022/06/26 04:46:36;;;;;;;10.20;7.57;;;;;;;24.85;61.18;100157.78;5011479;28;20027;-66
2022/06/26 04:49:01;;;;;;;10.80;6.82;;;;;;;24.98;61.44;100157.72;5014891;28;20038;-66
2022/06/26 04:51:27;;;;;;;8.63;6.70;;;;;;;25.03;61.46;100157.41;5014513;28;20379;-66
2022/06/26 04:53:53;;;;;;;9.65;6.55;;;;;;;25.16;60.82;100161.66;5007598;28;20404;-66
2022/06/26 04:56:18;;;;;;;11.68;6.70;;;;;;;25.25;60.27;100164.56;5004697;28;20041;-66
2022/06/26 04:58:44;;;;;;;9.15;7.05;;;;;;;25.31;60.19;100162.34;5014389;28;20041;-66
2022/06/26 05:01:09;;;;;;;9.45;6.40;;;;;;;25.39;58.68;100164.41;5014786;28;20030;-66
2022/06/26 05:03:35;;;;;;;7.80;6.15;;;;;;;25.45;59.05;100156.00;5014340;28;20045;-66
2022/06/26 05:06:01;;;;;;;6.95;6.25;;;;;;;25.58;59.06;100163.88;5014267;28;20053;-68
2022/06/26 05:08:26;;;;;;;9.63;6.53;;;;;;;25.70;59.06;100161.22;5008486;28;20076;-68
2022/06/26 05:10:52;;;;;;;10.25;6.35;;;;;;;25.73;58.42;100163.63;5014162;28;20034;-67
2022/06/26 05:13:18;;;;;;;9.00;5.80;;;;;;;25.90;58.47;100157.84;5013198;28;21268;-66
2022/06/26 05:15:43;;;;;;;10.90;6.15;;;;;;;26.08;56.94;100163.56;5013627;28;20025;-67
2022/06/26 05:18:09;;;;;;;8.57;5.20;;;;;;;26.18;56.66;100164.53;5014242;28;20034;-66
2022/06/26 05:20:34;;;;;;;7.35;5.53;;;;;;;26.26;55.91;100163.06;5012808;28;20022;-66
2022/06/26 05:23:00;;;;;;;6.75;4.95;;;;;;;26.32;55.45;100168.75;5012854;28;20041;-67
2022/06/26 05:25:26;;;;;;;9.15;5.32;;;;;;;26.49;56.02;100171.84;5013665;28;20034;-67
2022/06/26 05:27:51;;;;;;;13.18;5.43;;;;;;;26.56;55.79;100170.38;5013872;28;20395;-67
2022/06/26 05:30:17;;;;;;;8.57;4.60;;;;;;;26.59;53.97;100170.13;5013808;28;20037;-66
2022/06/26 05:32:42;;;;;;;4.78;4.07;;;;;;;26.73;52.08;100168.19;5013620;28;20026;-67
2022/06/26 05:35:08;;;;;;;5.72;4.63;;;;;;;26.91;51.10;100174.66;5013668;28;20093;-67
2022/06/26 05:37:34;;;;;;;5.65;4.30;;;;;;;27.07;51.56;100176.06;5013772;28;20088;-67
2022/06/26 05:40:00;;;;;;;6.53;4.00;;;;;;;27.08;51.72;100183.03;5013799;28;20045;-67
2022/06/26 05:42:25;;;;;;;7.18;4.13;;;;;;;27.16;52.34;100178.81;5013616;28;20040;-67
2022/06/26 05:44:51;;;;;;;6.28;4.50;;;;;;;27.16;52.23;100175.28;5013434;28;20022;-66
2022/06/26 05:47:16;;;;;;;5.53;4.50;;;;;;;27.23;50.70;100175.63;5013248;28;20112;-67
2022/06/26 05:49:42;;;;;;;4.45;2.85;;;;;;;27.28;45.86;100170.75;5013793;28;20526;-67
2022/06/26 05:52:08;;;;;;;3.47;3.17;;;;;;;27.29;48.08;100169.78;5013711;28;20029;-66
2022/06/26 05:54:33;;;;;;;6.03;3.22;;;;;;;27.41;49.11;100165.25;5013366;28;20034;-67
2022/06/26 05:56:59;;;;;;;7.05;3.70;;;;;;;27.37;46.82;100176.16;5013421;28;20360;-68
2022/06/26 05:59:24;;;;;;;5.13;3.42;;;;;;;27.47;48.88;100170.91;5005723;28;20751;-67
2022/06/26 06:01:50;;;;;;;4.35;3.13;;;;;;;27.49;48.05;100174.31;4996829;28;20040;-67
2022/06/26 06:04:15;;;;;;;4.32;3.50;;;;;;;27.64;47.25;100174.81;5013173;28;20460;-67
2022/06/26 06:06:41;;;;;;;3.58;3.25;;;;;;;27.41;48.81;100142.19;5012187;28;20719;-67
2022/06/26 06:09:07;;;;;;;5.32;3.30;;;;;;;27.61;48.55;100169.75;5013013;28;20484;-66
2022/06/26 06:11:33;;;;;;;4.15;3.28;;;;;;;27.71;48.55;100165.31;5013103;28;20025;-66
2022/06/26 06:13:59;;;;;;;4.07;3.40;;;;;;;27.82;46.24;100172.38;5012799;28;20108;-67
2022/06/26 06:16:25;;;;;;;5.13;3.45;;;;;;;27.91;46.77;100170.75;5013025;28;20101;-67
2022/06/26 06:18:50;;;;;;;4.95;3.13;;;;;;;27.83;48.04;100173.22;5013089;28;20029;-66
2022/06/26 06:21:16;;;;;;;3.58;3.15;;;;;;;27.81;46.71;100168.03;5012992;28;20033;-67
2022/06/26 06:23:43;;;;;;;4.57;3.20;;;;;;;27.90;47.06;100169.03;5012875;28;20030;-66
2022/06/26 06:26:09;;;;;;;5.32;3.58;;;;;;;27.96;47.06;100175.66;5012346;28;20048;-68
2022/06/26 06:28:40;;;;;;;4.10;3.55;;;;;;;27.90;46.88;100166.38;5011010;28;20099;-70
2022/06/26 06:31:06;;;;;;;3.95;3.65;;;;;;;27.89;46.75;100160.22;4994357;28;20055;-68
2022/06/26 06:33:32;;;;;;;3.47;2.88;;;;;;;27.91;45.82;100162.75;5012348;28;20029;-69
2022/06/26 06:35:57;;;;;;;4.28;3.13;;;;;;;27.97;45.94;100172.84;5012520;28;20026;-68
2022/06/26 06:38:23;;;;;;;3.00;2.80;;;;;;;27.99;44.65;100165.63;5012470;28;20086;-69
2022/06/26 06:40:49;;;;;;;2.80;2.60;;;;;;;28.01;44.43;100173.47;5012752;28;20059;-68
2022/06/26 06:43:15;;;;;;;5.15;2.50;;;;;;;28.00;44.82;100167.28;5011465;28;20026;-66
2022/06/26 06:45:40;;;;;;;2.97;2.70;;;;;;;28.06;45.31;100180.09;5012373;28;20115;-68
2022/06/26 06:48:06;;;;;;;4.65;3.10;;;;;;;28.11;44.36;100176.19;5012372;28;20041;-66
2022/06/26 06:50:32;;;;;;;2.88;2.67;;;;;;;28.11;44.46;100173.53;5012401;28;20099;-69
2022/06/26 06:52:58;;;;;;;5.93;3.30;;;;;;;28.17;44.19;100165.00;5012564;28;20533;-69
2022/06/26 06:55:24;;;;;;;3.35;3.05;;;;;;;28.00;45.32;100172.63;5012576;28;20025;-68
2022/06/26 06:57:50;;;;;;;3.13;2.80;;;;;;;28.05;44.82;100183.72;5012124;28;20026;-68
2022/06/26 07:00:15;;;;;;;4.78;2.88;;;;;;;28.14;44.54;100175.91;5012479;28;20167;-68
2022/06/26 07:02:41;;;;;;;5.07;3.15;;;;;;;28.13;43.96;100180.38;5012399;28;20034;-66
2022/06/26 07:05:08;;;;;;;6.80;2.95;;;;;;;28.32;43.76;100182.28;5007718;28;20504;-67
2022/06/26 07:07:34;;;;;;;4.13;3.00;;;;;;;28.47;44.05;100184.56;5001415;28;20480;-68
2022/06/26 07:10:00;;;;;;;4.28;3.75;;;;;;;28.50;43.85;100184.28;4996788;28;20030;-68
2022/06/26 07:12:26;;;;;;;6.50;3.67;;;;;;;28.57;44.56;100180.09;5006735;28;20479;-68
2022/06/26 19:48:52;;;;;;;17.75;10.20;;;;;;;25.59;55.79;100032.06;5103890;22;20092;-57
2022/06/26 19:51:18;;;;;;;18.45;9.93;;;;;;;25.56;56.23;100034.97;5034762;28;20041;-62
2022/06/26 19:53:44;;;;;;;17.10;9.25;;;;;;;25.52;56.00;100039.66;5056044;28;20107;-61
2022/06/26 19:56:09;;;;;;;16.52;10.15;;;;;;;25.47;56.32;100036.53;5036869;28;20554;-61
2022/06/26 19:58:35;;;;;;;15.30;11.00;;;;;;;25.45;56.45;100030.47;5042461;28;20034;-63
2022/06/26 20:01:01;;;;;;;19.67;12.98;;;;;;;25.36;56.94;100036.53;5054343;28;20390;-63
2022/06/26 20:06:11;;;;;;;26.17;9.82;;;;;;;25.22;57.01;100030.44;5055293;28;20063;-62
2022/06/26 20:08:37;;;;;;;24.60;11.40;;;;;;;25.22;57.09;100033.09;5055041;28;20029;-63
2022/06/26 20:11:02;;;;;;;26.80;9.82;;;;;;;25.20;57.28;100032.38;5054416;28;20028;-63
2022/06/26 20:13:28;;;;;;;21.17;9.57;;;;;;;25.18;57.38;100033.44;5054757;28;20021;-63
2022/06/26 20:15:54;;;;;;;20.15;10.73;;;;;;;25.11;57.99;100027.75;5035605;28;20474;-63
2022/06/26 20:18:19;;;;;;;16.90;9.98;;;;;;;25.11;57.91;100033.94;5054996;28;20115;-62
2022/06/26 20:20:45;;;;;;;17.80;10.02;;;;;;;25.08;57.96;100031.53;5054483;28;20032;-63
2022/06/26 20:23:10;;;;;;;14.35;9.65;;;;;;;25.01;58.84;100038.22;5054402;28;20487;-61
2022/06/26 20:25:36;;;;;;;15.15;9.65;;;;;;;24.99;58.50;100041.00;5062642;28;20055;-63
2022/06/26 20:28:02;;;;;;;20.73;10.20;;;;;;;24.98;58.35;100038.47;5050567;28;20026;-60
2022/06/26 20:30:28;;;;;;;18.15;10.77;;;;;;;24.99;59.00;100043.66;5054850;28;20509;-63
2022/06/26 20:32:54;;;;;;;12.25;10.30;;;;;;;24.91;59.80;100051.34;5065891;28;20029;-62
2022/06/26 20:35:25;;;;;;;17.50;10.70;;;;;;;24.85;60.26;100038.56;5054251;28;20033;-63
2022/06/26 20:37:52;;;;;;;;;;;;;;;24.80;60.99;100040.72;5053900;28;20029;-62
2022/06/26 20:40:17;;;;;;;21.23;11.10;;;;;;;24.74;61.14;100041.16;5035847;28;19982;-62
2022/06/26 20:42:43;;;;;;;27.30;11.77;;;;;;;24.69;60.50;100043.34;5056648;28;20022;-62
2022/06/26 20:45:09;;;;;;;39.63;11.88;;;;;;;24.71;60.48;100049.34;5039138;28;20032;-63
2022/06/26 20:47:34;;;;;;;21.42;11.93;;;;;;;24.64;61.98;100041.00;5050772;28;20412;-63
2022/06/26 20:50:01;;;;;;;17.27;10.77;;;;;;;24.63;62.26;100040.19;5054183;28;20025;-63
2022/06/26 20:52:27;;;;;;;17.38;11.70;;;;;;;24.58;62.15;100052.03;5054187;28;20021;-63
2022/06/26 20:54:52;;;;;;;30.27;11.43;;;;;;;24.59;61.58;100049.28;5054353;28;20025;-64
2022/06/26 20:57:18;;;;;;;20.67;12.38;;;;;;;24.55;62.25;100055.75;5053472;28;20489;-63
2022/06/26 20:59:43;;;;;;;22.63;11.77;;;;;;;24.46;62.17;100051.97;5053202;28;20025;-63
2022/06/26 21:02:09;;;;;;;24.67;11.90;;;;;;;24.49;62.05;100063.31;5054008;28;20486;-62
2022/06/26 21:04:34;;;;;;;20.80;11.77;;;;;;;24.41;63.53;100056.78;5035656;28;20032;-63
2022/06/26 21:07:00;;;;;;;21.50;12.02;;;;;;;24.41;63.26;100061.22;5053993;28;20463;-63
2022/06/26 21:09:26;;;;;;;21.35;12.10;;;;;;;24.38;63.83;100045.56;5052954;28;20025;-63
2022/06/26 21:11:51;;;;;;;14.70;11.45;;;;;;;24.42;63.34;100053.16;5055519;28;20033;-62
2022/06/26 21:14:17;;;;;;;19.30;11.25;;;;;;;24.37;63.54;100038.56;5065982;28;20045;-62
2022/06/26 21:16:43;;;;;;;19.85;11.93;;;;;;;24.37;63.99;100047.38;5049919;28;20449;-62
2022/06/26 21:19:10;;;;;;;16.88;11.60;;;;;;;24.36;64.47;100047.50;5053376;28;20028;-62
2022/06/26 21:21:35;;;;;;;23.40;12.00;;;;;;;24.33;64.48;100059.16;5064165;28;20086;-64
2022/06/26 21:24:03;;;;;;;16.75;11.55;;;;;;;24.31;64.61;100053.09;5071785;28;20032;-63
2022/06/26 21:26:29;;;;;;;18.70;12.25;;;;;;;24.16;65.77;100047.16;5072338;28;20020;-64
2022/06/26 21:28:55;;;;;;;17.08;11.68;;;;;;;24.21;64.74;100050.28;5052462;28;20101;-63
2022/06/26 21:31:22;;;;;;;17.15;11.40;;;;;;;24.17;65.44;100032.97;5053726;28;20033;-63
2022/06/26 21:33:48;;;;;;;19.42;12.13;;;;;;;24.23;65.37;100047.56;5065735;28;20028;-64
2022/06/26 21:36:14;;;;;;;23.58;12.13;;;;;;;24.19;65.29;100046.91;5065769;28;20502;-64
2022/06/26 21:38:39;;;;;;;19.15;11.93;;;;;;;24.14;65.72;100043.75;5055261;28;20024;-62
2022/06/26 21:41:06;;;;;;;21.25;11.95;;;;;;;24.15;65.42;100055.19;5066125;28;20083;-63
2022/06/26 21:43:32;;;;;;;23.33;12.88;;;;;;;24.08;65.70;100049.50;5051851;28;20044;-62
2022/06/26 21:45:57;;;;;;;17.67;12.63;;;;;;;24.11;65.48;100054.56;5052052;28;20021;-62
2022/06/26 21:48:23;;;;;;;22.65;13.25;;;;;;;24.11;65.89;100054.56;5042768;28;20048;-62
2022/06/26 21:50:49;;;;;;;18.73;13.23;;;;;;;24.03;65.80;100054.25;5043477;28;20033;-62
2022/06/26 21:53:15;;;;;;;17.58;13.00;;;;;;;24.02;66.00;100057.88;5053199;28;20402;-62
2022/06/26 21:55:40;;;;;;;33.90;13.52;;;;;;;24.02;65.91;100056.06;5052052;28;20029;-62
2022/06/26 21:58:06;;;;;;;21.80;14.18;;;;;;;24.00;66.13;100059.78;5052671;28;20033;-62
2022/06/26 22:00:34;;;;;;;20.27;12.95;;;;;;;23.93;66.55;100062.88;5052605;28;20078;-62
2022/06/26 22:03:08;;;;;;;22.50;13.25;;;;;;;23.61;66.60;100010.44;5034617;28;20029;-62
2022/06/26 22:05:35;;;;;;;17.15;12.13;;;;;;;23.89;66.55;100053.47;5054316;28;20119;-62
2022/06/26 22:08:02;;;;;;;23.30;13.05;;;;;;;23.88;66.50;100059.69;5064518;28;20056;-64
2022/06/26 22:10:29;;;;;;;19.08;12.45;;;;;;;23.58;66.95;100012.44;5052783;28;20024;-64
2022/06/26 22:12:55;;;;;;;20.88;13.27;;;;;;;23.82;67.30;100060.09;5034244;28;20359;-64
2022/06/26 22:15:21;;;;;;;20.33;12.15;;;;;;;23.77;67.62;100057.81;5049582;28;20025;-63
2022/06/26 22:17:48;;;;;;;17.65;12.23;;;;;;;23.77;67.67;100056.94;5035859;28;20483;-62
2022/06/26 22:20:14;;;;;;;21.63;12.52;;;;;;;23.76;67.49;100052.63;5052616;28;20089;-62
2022/06/26 22:22:39;;;;;;;16.25;12.02;;;;;;;23.70;68.51;100058.31;5052431;28;20032;-62
2022/06/26 22:25:06;;;;;;;21.02;11.65;;;;;;;23.68;68.82;100052.31;5052462;28;20028;-62
2022/06/26 22:30:16;;;;;;;15.68;12.00;;;;;;;23.54;69.48;100050.63;5051907;28;20108;-64
2022/06/26 22:32:42;;;;;;;16.90;11.25;;;;;;;23.51;69.35;100051.69;5051984;28;20108;-64
2022/06/26 22:35:08;;;;;;;20.77;11.57;;;;;;;23.54;69.01;100059.38;5051773;28;20037;-64
2022/06/26 22:37:34;;;;;;;16.75;12.30;;;;;;;23.48;69.38;100057.19;5052534;28;20036;-64
2022/06/26 22:40:02;;;;;;;15.98;11.60;;;;;;;23.42;69.02;100049.69;5050576;28;20032;-64
2022/06/26 22:42:29;;;;;;;14.43;11.57;;;;;;;23.47;69.06;100062.59;5051881;28;20471;-64
2022/06/26 22:44:55;;;;;;;18.75;11.82;;;;;;;23.44;69.47;100071.56;5047784;28;20379;-63
2022/06/26 22:47:21;;;;;;;14.43;11.15;;;;;;;23.42;69.25;100058.47;5050124;28;20063;-62
2022/06/26 22:49:46;;;;;;;15.98;10.95;;;;;;;23.34;70.09;100059.94;5051925;28;20029;-63
2022/06/26 22:52:12;;;;;;;15.57;11.38;;;;;;;23.32;69.59;100062.69;5051802;28;20493;-63
2022/06/26 22:54:38;;;;;;;13.48;11.05;;;;;;;23.31;69.77;100060.16;5051967;28;20082;-62
2022/06/26 22:57:04;;;;;;;12.43;10.70;;;;;;;23.33;69.71;100060.88;5057558;28;20044;-63
2022/06/26 22:59:30;;;;;;;18.80;12.10;;;;;;;23.34;70.13;100059.94;5039133;28;20037;-64
2022/06/26 23:01:57;;;;;;;20.13;12.60;;;;;;;23.31;69.99;100060.16;5051768;28;20029;-63
2022/06/26 23:04:22;;;;;;;15.35;11.50;;;;;;;23.25;69.81;100046.41;5030852;28;20034;-64
2022/06/26 23:06:48;;;;;;;15.27;11.43;;;;;;;23.28;69.98;100050.63;5043720;28;20028;-64
2022/06/26 23:09:13;;;;;;;14.70;11.55;;;;;;;23.13;70.44;100059.59;5051537;28;20017;-64
2022/06/26 23:11:39;;;;;;;12.32;11.00;;;;;;;22.96;71.80;100052.78;5033187;28;20462;-64
2022/06/26 23:14:05;;;;;;;17.98;11.75;;;;;;;22.98;70.98;100045.63;5051819;28;20067;-64
2022/06/26 23:16:31;;;;;;;15.23;12.10;;;;;;;22.93;71.28;100051.19;5050768;28;20060;-64
2022/06/26 23:18:56;;;;;;;19.48;11.70;;;;;;;23.04;71.44;100064.53;5061038;28;20036;-64
2022/06/26 23:21:22;;;;;;;18.80;12.68;;;;;;;22.95;71.27;100048.47;5051890;28;20048;-64
2022/06/26 23:23:48;;;;;;;14.68;11.45;;;;;;;22.95;71.31;100053.75;5033359;28;20075;-63
2022/06/26 23:26:13;;;;;;;18.17;11.73;;;;;;;22.91;71.72;100064.50;5035052;28;20048;-64
2022/06/26 23:28:39;;;;;;;14.73;12.30;;;;;;;22.92;71.47;100060.09;5060578;28;20028;-65
2022/06/26 23:31:04;;;;;;;14.27;11.20;;;;;;;22.79;72.20;100060.06;5042375;28;20044;-64
2022/06/26 23:33:30;;;;;;;16.88;11.18;;;;;;;22.81;71.90;100052.88;5033754;28;20125;-64
2022/06/26 23:35:56;;;;;;;13.73;10.45;;;;;;;22.81;72.13;100047.59;5051277;28;20032;-65
2022/06/26 23:38:21;;;;;;;15.65;10.60;;;;;;;22.84;71.60;100044.75;5051555;28;20052;-65
2022/06/26 23:40:47;;;;;;;16.65;11.43;;;;;;;22.85;71.81;100049.06;5051077;28;20679;-65
2022/06/26 23:43:14;;;;;;;18.98;10.88;;;;;;;22.76;71.94;100044.44;5050981;28;20053;-63
2022/06/26 23:45:40;;;;;;;14.18;9.98;;;;;;;22.82;72.54;100057.22;5050831;28;20019;-63
2022/06/26 23:48:08;;;;;;;15.55;11.23;;;;;;;22.81;72.27;100046.75;5050737;28;20045;-63
2022/06/26 23:50:34;;;;;;;16.35;10.55;;;;;;;22.80;72.10;100045.06;5051342;28;20063;-63
2022/06/26 23:53:00;;;;;;;15.88;12.02;;;;;;;22.79;71.87;100044.22;5051522;28;20561;-63